sensor_id;sensor_type;location;lat;lon;timestamp;P1;durP1;ratioP1;P2;durP2;ratioP2
9090;SDS011;4581;42.416;25.598;2023-09-12T00:00:22;0.52;;;0.22;;
9090;SDS011;4581;42.416;25.598;2023-09-12T00:02:50;0.10;;;0.10;;
9090;SDS011;4581;42.416;25.598;2023-09-12T00:05:17;0.35;;;0.22;;
9090;SDS011;4581;42.416;25.598;2023-09-12T00:07:43;0.20;;;0.10;;
9090;SDS011;4581;42.416;25.598;2023-09-12T00:10:10;0.00;;;0.00;;
9090;SDS011;4581;42.416;25.598;2023-09-12T00:12:37;0.43;;;0.38;;
9090;SDS011;4581;42.416;25.598;2023-09-12T00:15:04;0.03;;;0.03;;
9090;SDS011;4581;42.416;25.598;2023-09-12T00:17:31;0.08;;;0.08;;
9090;SDS011;4581;42.416;25.598;2023-09-12T00:19:57;0.23;;;0.23;;
9090;SDS011;4581;42.416;25.598;2023-09-12T00:22:24;0.20;;;0.20;;
9090;SDS011;4581;42.416;25.598;2023-09-12T00:24:51;0.25;;;0.25;;
9090;SDS011;4581;42.416;25.598;2023-09-12T00:27:17;0.10;;;0.10;;
9090;SDS011;4581;42.416;25.598;2023-09-12T00:29:44;0.00;;;0.00;;
9090;SDS011;4581;42.416;25.598;2023-09-12T00:32:11;0.00;;;0.00;;
9090;SDS011;4581;42.416;25.598;2023-09-12T00:34:37;0.20;;;0.20;;
9090;SDS011;4581;42.416;25.598;2023-09-12T00:37:04;0.00;;;0.00;;
9090;SDS011;4581;42.416;25.598;2023-09-12T00:39:31;0.30;;;0.30;;
9090;SDS011;4581;42.416;25.598;2023-09-12T00:41:58;0.20;;;0.20;;
9090;SDS011;4581;42.416;25.598;2023-09-12T00:44:25;0.20;;;0.20;;
9090;SDS011;4581;42.416;25.598;2023-09-12T00:46:51;0.22;;;0.22;;
9090;SDS011;4581;42.416;25.598;2023-09-12T00:49:20;0.10;;;0.10;;
9090;SDS011;4581;42.416;25.598;2023-09-12T00:51:49;0.00;;;0.00;;
9090;SDS011;4581;42.416;25.598;2023-09-12T00:54:17;0.00;;;0.00;;
9090;SDS011;4581;42.416;25.598;2023-09-12T00:56:44;0.10;;;0.10;;
9090;SDS011;4581;42.416;25.598;2023-09-12T00:59:12;0.30;;;0.30;;
9090;SDS011;4581;42.416;25.598;2023-09-12T01:01:42;0.15;;;0.10;;
9090;SDS011;4581;42.416;25.598;2023-09-12T01:04:09;0.30;;;0.30;;
9090;SDS011;4581;42.416;25.598;2023-09-12T01:06:57;0.38;;;0.38;;
9090;SDS011;4581;42.416;25.598;2023-09-12T01:09:24;0.35;;;0.30;;
9090;SDS011;4581;42.416;25.598;2023-09-12T01:11:50;0.10;;;0.10;;
9090;SDS011;4581;42.416;25.598;2023-09-12T01:14:17;0.13;;;0.13;;
9090;SDS011;4581;42.416;25.598;2023-09-12T01:16:44;0.20;;;0.20;;
9090;SDS011;4581;42.416;25.598;2023-09-12T01:19:11;0.10;;;0.10;;
9090;SDS011;4581;42.416;25.598;2023-09-12T01:27:33;0.00;;;0.00;;
9090;SDS011;4581;42.416;25.598;2023-09-12T01:30:02;0.10;;;0.10;;
9090;SDS011;4581;42.416;25.598;2023-09-12T01:32:32;0.00;;;0.00;;
9090;SDS011;4581;42.416;25.598;2023-09-12T01:34:59;0.15;;;0.13;;
9090;SDS011;4581;42.416;25.598;2023-09-12T01:37:26;0.20;;;0.20;;
9090;SDS011;4581;42.416;25.598;2023-09-12T01:39:53;0.40;;;0.40;;
9090;SDS011;4581;42.416;25.598;2023-09-12T01:42:20;0.23;;;0.23;;
9090;SDS011;4581;42.416;25.598;2023-09-12T01:44:54;0.13;;;0.13;;
9090;SDS011;4581;42.416;25.598;2023-09-12T01:47:23;0.00;;;0.00;;
9090;SDS011;4581;42.416;25.598;2023-09-12T01:49:52;0.17;;;0.17;;
9090;SDS011;4581;42.416;25.598;2023-09-12T01:52:22;0.10;;;0.10;;
9090;SDS011;4581;42.416;25.598;2023-09-12T01:54:51;0.20;;;0.20;;
9090;SDS011;4581;42.416;25.598;2023-09-12T01:57:19;0.20;;;0.20;;
9090;SDS011;4581;42.416;25.598;2023-09-12T01:59:49;0.13;;;0.13;;
9090;SDS011;4581;42.416;25.598;2023-09-12T02:02:16;0.20;;;0.20;;
9090;SDS011;4581;42.416;25.598;2023-09-12T02:04:47;0.30;;;0.30;;
9090;SDS011;4581;42.416;25.598;2023-09-12T02:07:38;0.20;;;0.20;;
9090;SDS011;4581;42.416;25.598;2023-09-12T02:10:06;0.43;;;0.43;;
9090;SDS011;4581;42.416;25.598;2023-09-12T02:12:33;0.83;;;0.30;;
9090;SDS011;4581;42.416;25.598;2023-09-12T02:15:00;0.20;;;0.20;;
9090;SDS011;4581;42.416;25.598;2023-09-12T02:17:27;0.20;;;0.20;;
9090;SDS011;4581;42.416;25.598;2023-09-12T02:19:53;0.00;;;0.00;;
9090;SDS011;4581;42.416;25.598;2023-09-12T02:22:20;0.10;;;0.10;;
9090;SDS011;4581;42.416;25.598;2023-09-12T02:24:47;0.23;;;0.23;;
9090;SDS011;4581;42.416;25.598;2023-09-12T02:27:14;0.03;;;0.03;;
9090;SDS011;4581;42.416;25.598;2023-09-12T02:29:40;0.03;;;0.03;;
9090;SDS011;4581;42.416;25.598;2023-09-12T02:32:08;0.10;;;0.10;;
9090;SDS011;4581;42.416;25.598;2023-09-12T02:34:35;0.17;;;0.17;;
9090;SDS011;4581;42.416;25.598;2023-09-12T02:37:02;0.10;;;0.10;;
9090;SDS011;4581;42.416;25.598;2023-09-12T02:39:29;0.27;;;0.27;;
9090;SDS011;4581;42.416;25.598;2023-09-12T02:41:56;0.10;;;0.10;;
9090;SDS011;4581;42.416;25.598;2023-09-12T02:44:22;0.20;;;0.20;;
9090;SDS011;4581;42.416;25.598;2023-09-12T02:46:49;0.20;;;0.20;;
9090;SDS011;4581;42.416;25.598;2023-09-12T02:49:17;0.10;;;0.10;;
9090;SDS011;4581;42.416;25.598;2023-09-12T02:51:45;0.20;;;0.20;;
9090;SDS011;4581;42.416;25.598;2023-09-12T02:54:12;0.50;;;0.20;;
9090;SDS011;4581;42.416;25.598;2023-09-12T02:56:39;0.10;;;0.10;;
9090;SDS011;4581;42.416;25.598;2023-09-12T02:59:05;0.20;;;0.20;;
9090;SDS011;4581;42.416;25.598;2023-09-12T03:01:32;0.10;;;0.10;;
9090;SDS011;4581;42.416;25.598;2023-09-12T03:03:59;0.10;;;0.10;;
9090;SDS011;4581;42.416;25.598;2023-09-12T03:06:26;0.00;;;0.00;;
9090;SDS011;4581;42.416;25.598;2023-09-12T03:08:55;0.33;;;0.10;;
9090;SDS011;4581;42.416;25.598;2023-09-12T03:11:21;0.10;;;0.10;;
9090;SDS011;4581;42.416;25.598;2023-09-12T03:13:48;0.10;;;0.10;;
9090;SDS011;4581;42.416;25.598;2023-09-12T03:16:15;0.00;;;0.00;;
9090;SDS011;4581;42.416;25.598;2023-09-12T03:18:41;0.57;;;0.47;;
9090;SDS011;4581;42.416;25.598;2023-09-12T03:21:08;0.50;;;0.30;;
9090;SDS011;4581;42.416;25.598;2023-09-12T03:23:35;0.43;;;0.20;;
9090;SDS011;4581;42.416;25.598;2023-09-12T03:26:02;0.30;;;0.20;;
9090;SDS011;4581;42.416;25.598;2023-09-12T03:28:30;0.20;;;0.20;;
9090;SDS011;4581;42.416;25.598;2023-09-12T03:31:07;0.60;;;0.30;;
9090;SDS011;4581;42.416;25.598;2023-09-12T03:33:35;0.10;;;0.10;;
9090;SDS011;4581;42.416;25.598;2023-09-12T03:36:02;0.10;;;0.10;;
9090;SDS011;4581;42.416;25.598;2023-09-12T03:38:29;0.23;;;0.23;;
9090;SDS011;4581;42.416;25.598;2023-09-12T03:40:56;0.10;;;0.10;;
9090;SDS011;4581;42.416;25.598;2023-09-12T03:43:23;0.10;;;0.10;;
9090;SDS011;4581;42.416;25.598;2023-09-12T03:45:49;0.00;;;0.00;;
9090;SDS011;4581;42.416;25.598;2023-09-12T03:48:16;0.10;;;0.10;;
9090;SDS011;4581;42.416;25.598;2023-09-12T03:50:44;0.40;;;0.40;;
9090;SDS011;4581;42.416;25.598;2023-09-12T03:53:11;0.40;;;0.20;;
9090;SDS011;4581;42.416;25.598;2023-09-12T03:55:39;0.40;;;0.20;;
9090;SDS011;4581;42.416;25.598;2023-09-12T03:58:06;0.40;;;0.23;;
9090;SDS011;4581;42.416;25.598;2023-09-12T04:00:33;0.13;;;0.13;;
9090;SDS011;4581;42.416;25.598;2023-09-12T04:02:59;0.10;;;0.10;;
9090;SDS011;4581;42.416;25.598;2023-09-12T04:05:26;0.10;;;0.10;;
9090;SDS011;4581;42.416;25.598;2023-09-12T04:07:53;0.10;;;0.10;;
9090;SDS011;4581;42.416;25.598;2023-09-12T04:10:20;0.10;;;0.10;;
9090;SDS011;4581;42.416;25.598;2023-09-12T04:12:47;0.53;;;0.17;;
9090;SDS011;4581;42.416;25.598;2023-09-12T04:15:14;0.00;;;0.00;;
9090;SDS011;4581;42.416;25.598;2023-09-12T04:17:40;0.10;;;0.10;;
9090;SDS011;4581;42.416;25.598;2023-09-12T04:20:07;0.20;;;0.20;;
9090;SDS011;4581;42.416;25.598;2023-09-12T04:22:34;0.10;;;0.10;;
9090;SDS011;4581;42.416;25.598;2023-09-12T04:25:01;0.20;;;0.20;;
9090;SDS011;4581;42.416;25.598;2023-09-12T04:27:28;0.00;;;0.00;;
9090;SDS011;4581;42.416;25.598;2023-09-12T04:29:54;0.47;;;0.47;;
9090;SDS011;4581;42.416;25.598;2023-09-12T04:32:21;0.00;;;0.00;;
9090;SDS011;4581;42.416;25.598;2023-09-12T04:34:50;0.07;;;0.07;;
9090;SDS011;4581;42.416;25.598;2023-09-12T04:37:17;0.23;;;0.23;;
9090;SDS011;4581;42.416;25.598;2023-09-12T04:39:44;0.00;;;0.00;;
9090;SDS011;4581;42.416;25.598;2023-09-12T04:42:11;0.10;;;0.10;;
9090;SDS011;4581;42.416;25.598;2023-09-12T04:44:39;0.40;;;0.40;;
9090;SDS011;4581;42.416;25.598;2023-09-12T04:47:07;0.27;;;0.27;;
9090;SDS011;4581;42.416;25.598;2023-09-12T04:49:34;0.40;;;0.40;;
9090;SDS011;4581;42.416;25.598;2023-09-12T04:52:01;0.47;;;0.47;;
9090;SDS011;4581;42.416;25.598;2023-09-12T04:54:28;0.23;;;0.23;;
9090;SDS011;4581;42.416;25.598;2023-09-12T04:56:55;0.40;;;0.40;;
9090;SDS011;4581;42.416;25.598;2023-09-12T04:59:21;0.10;;;0.10;;
9090;SDS011;4581;42.416;25.598;2023-09-12T05:01:48;0.20;;;0.20;;
9090;SDS011;4581;42.416;25.598;2023-09-12T05:04:15;0.57;;;0.43;;
9090;SDS011;4581;42.416;25.598;2023-09-12T05:06:42;0.73;;;0.73;;
9090;SDS011;4581;42.416;25.598;2023-09-12T05:09:09;0.17;;;0.17;;
9090;SDS011;4581;42.416;25.598;2023-09-12T05:11:37;0.53;;;0.53;;
9090;SDS011;4581;42.416;25.598;2023-09-12T05:14:04;0.30;;;0.30;;
9090;SDS011;4581;42.416;25.598;2023-09-12T05:16:30;0.20;;;0.20;;
9090;SDS011;4581;42.416;25.598;2023-09-12T05:18:57;1.07;;;0.60;;
9090;SDS011;4581;42.416;25.598;2023-09-12T05:21:24;0.10;;;0.10;;
9090;SDS011;4581;42.416;25.598;2023-09-12T05:23:51;0.20;;;0.20;;
9090;SDS011;4581;42.416;25.598;2023-09-12T05:26:18;0.50;;;0.50;;
9090;SDS011;4581;42.416;25.598;2023-09-12T05:28:44;0.20;;;0.20;;
9090;SDS011;4581;42.416;25.598;2023-09-12T05:31:11;0.27;;;0.27;;
9090;SDS011;4581;42.416;25.598;2023-09-12T05:33:38;0.17;;;0.17;;
9090;SDS011;4581;42.416;25.598;2023-09-12T05:36:04;0.52;;;0.52;;
9090;SDS011;4581;42.416;25.598;2023-09-12T05:38:31;0.28;;;0.20;;
9090;SDS011;4581;42.416;25.598;2023-09-12T05:40:58;0.20;;;0.20;;
9090;SDS011;4581;42.416;25.598;2023-09-12T05:43:24;0.20;;;0.20;;
9090;SDS011;4581;42.416;25.598;2023-09-12T05:45:51;0.20;;;0.20;;
9090;SDS011;4581;42.416;25.598;2023-09-12T05:48:19;0.10;;;0.10;;
9090;SDS011;4581;42.416;25.598;2023-09-12T05:50:45;0.55;;;0.47;;
9090;SDS011;4581;42.416;25.598;2023-09-12T05:53:12;0.17;;;0.17;;
9090;SDS011;4581;42.416;25.598;2023-09-12T05:55:39;1.80;;;0.60;;
9090;SDS011;4581;42.416;25.598;2023-09-12T05:58:05;0.30;;;0.30;;
9090;SDS011;4581;42.416;25.598;2023-09-12T06:00:32;1.05;;;0.60;;
9090;SDS011;4581;42.416;25.598;2023-09-12T06:02:59;0.60;;;0.60;;
9090;SDS011;4581;42.416;25.598;2023-09-12T06:05:27;0.50;;;0.40;;
9090;SDS011;4581;42.416;25.598;2023-09-12T06:07:53;0.00;;;0.00;;
9090;SDS011;4581;42.416;25.598;2023-09-12T06:10:20;0.05;;;0.05;;
9090;SDS011;4581;42.416;25.598;2023-09-12T06:12:47;0.47;;;0.20;;
9090;SDS011;4581;42.416;25.598;2023-09-12T06:15:16;0.57;;;0.35;;
9090;SDS011;4581;42.416;25.598;2023-09-12T06:17:43;0.28;;;0.28;;
9090;SDS011;4581;42.416;25.598;2023-09-12T06:20:10;0.13;;;0.13;;
9090;SDS011;4581;42.416;25.598;2023-09-12T06:22:36;0.10;;;0.10;;
9090;SDS011;4581;42.416;25.598;2023-09-12T06:25:03;0.38;;;0.35;;
9090;SDS011;4581;42.416;25.598;2023-09-12T06:27:30;1.13;;;1.02;;
9090;SDS011;4581;42.416;25.598;2023-09-12T06:29:58;0.13;;;0.13;;
9090;SDS011;4581;42.416;25.598;2023-09-12T06:32:25;0.32;;;0.32;;
9090;SDS011;4581;42.416;25.598;2023-09-12T06:34:51;0.10;;;0.10;;
9090;SDS011;4581;42.416;25.598;2023-09-12T06:37:18;0.17;;;0.17;;
9090;SDS011;4581;42.416;25.598;2023-09-12T06:39:48;0.38;;;0.32;;
9090;SDS011;4581;42.416;25.598;2023-09-12T06:42:15;0.20;;;0.20;;
9090;SDS011;4581;42.416;25.598;2023-09-12T06:44:42;0.35;;;0.35;;
9090;SDS011;4581;42.416;25.598;2023-09-12T06:47:09;0.52;;;0.45;;
9090;SDS011;4581;42.416;25.598;2023-09-12T06:49:36;0.35;;;0.35;;
9090;SDS011;4581;42.416;25.598;2023-09-12T06:52:04;0.70;;;0.50;;
9090;SDS011;4581;42.416;25.598;2023-09-12T06:54:32;0.43;;;0.30;;
9090;SDS011;4581;42.416;25.598;2023-09-12T06:56:59;0.40;;;0.40;;
9090;SDS011;4581;42.416;25.598;2023-09-12T06:59:26;0.45;;;0.30;;
9090;SDS011;4581;42.416;25.598;2023-09-12T07:01:53;0.40;;;0.40;;
9090;SDS011;4581;42.416;25.598;2023-09-12T07:04:19;0.82;;;0.60;;
9090;SDS011;4581;42.416;25.598;2023-09-12T07:06:47;0.30;;;0.30;;
9090;SDS011;4581;42.416;25.598;2023-09-12T07:09:14;0.38;;;0.38;;
9090;SDS011;4581;42.416;25.598;2023-09-12T07:11:41;0.38;;;0.38;;
9090;SDS011;4581;42.416;25.598;2023-09-12T07:14:11;0.77;;;0.50;;
9090;SDS011;4581;42.416;25.598;2023-09-12T07:16:38;0.47;;;0.47;;
9090;SDS011;4581;42.416;25.598;2023-09-12T07:19:04;0.63;;;0.43;;
9090;SDS011;4581;42.416;25.598;2023-09-12T07:21:32;0.30;;;0.30;;
9090;SDS011;4581;42.416;25.598;2023-09-12T07:23:59;0.20;;;0.20;;
9090;SDS011;4581;42.416;25.598;2023-09-12T07:26:26;0.30;;;0.30;;
9090;SDS011;4581;42.416;25.598;2023-09-12T07:28:53;0.35;;;0.30;;
9090;SDS011;4581;42.416;25.598;2023-09-12T07:31:20;0.40;;;0.40;;
9090;SDS011;4581;42.416;25.598;2023-09-12T07:33:47;0.50;;;0.50;;
9090;SDS011;4581;42.416;25.598;2023-09-12T07:36:14;0.38;;;0.38;;
9090;SDS011;4581;42.416;25.598;2023-09-12T07:38:40;0.80;;;0.63;;
9090;SDS011;4581;42.416;25.598;2023-09-12T07:41:09;0.30;;;0.30;;
9090;SDS011;4581;42.416;25.598;2023-09-12T07:43:35;0.40;;;0.40;;
9090;SDS011;4581;42.416;25.598;2023-09-12T07:46:02;0.10;;;0.10;;
9090;SDS011;4581;42.416;25.598;2023-09-12T07:48:30;0.28;;;0.28;;
9090;SDS011;4581;42.416;25.598;2023-09-12T07:50:56;0.32;;;0.32;;
9090;SDS011;4581;42.416;25.598;2023-09-12T07:53:23;0.50;;;0.50;;
9090;SDS011;4581;42.416;25.598;2023-09-12T07:55:50;0.30;;;0.30;;
9090;SDS011;4581;42.416;25.598;2023-09-12T07:58:17;0.57;;;0.57;;
9090;SDS011;4581;42.416;25.598;2023-09-12T08:00:47;0.47;;;0.43;;
9090;SDS011;4581;42.416;25.598;2023-09-12T08:03:15;0.43;;;0.43;;
9090;SDS011;4581;42.416;25.598;2023-09-12T08:05:42;0.70;;;0.70;;
9090;SDS011;4581;42.416;25.598;2023-09-12T08:08:09;0.30;;;0.30;;
9090;SDS011;4581;42.416;25.598;2023-09-12T08:10:36;0.65;;;0.45;;
9090;SDS011;4581;42.416;25.598;2023-09-12T08:13:03;0.90;;;0.68;;
9090;SDS011;4581;42.416;25.598;2023-09-12T08:15:30;0.10;;;0.10;;
9090;SDS011;4581;42.416;25.598;2023-09-12T08:17:57;0.40;;;0.40;;
9090;SDS011;4581;42.416;25.598;2023-09-12T08:20:23;1.75;;;0.90;;
9090;SDS011;4581;42.416;25.598;2023-09-12T08:22:50;0.35;;;0.35;;
9090;SDS011;4581;42.416;25.598;2023-09-12T08:25:17;0.38;;;0.38;;
9090;SDS011;4581;42.416;25.598;2023-09-12T08:27:44;0.45;;;0.45;;
9090;SDS011;4581;42.416;25.598;2023-09-12T08:30:11;0.40;;;0.40;;
9090;SDS011;4581;42.416;25.598;2023-09-12T08:32:40;0.17;;;0.17;;
9090;SDS011;4581;42.416;25.598;2023-09-12T08:35:11;0.80;;;0.80;;
9090;SDS011;4581;42.416;25.598;2023-09-12T08:37:41;0.40;;;0.40;;
9090;SDS011;4581;42.416;25.598;2023-09-12T08:40:09;0.73;;;0.73;;
9090;SDS011;4581;42.416;25.598;2023-09-12T08:42:38;0.93;;;0.70;;
9090;SDS011;4581;42.416;25.598;2023-09-12T08:45:11;0.20;;;0.20;;
9090;SDS011;4581;42.416;25.598;2023-09-12T08:47:43;0.57;;;0.57;;
9090;SDS011;4581;42.416;25.598;2023-09-12T08:50:13;0.73;;;0.45;;
9090;SDS011;4581;42.416;25.598;2023-09-12T08:52:41;0.40;;;0.40;;
9090;SDS011;4581;42.416;25.598;2023-09-12T08:55:29;0.30;;;0.30;;
9090;SDS011;4581;42.416;25.598;2023-09-12T08:57:56;0.90;;;0.75;;
9090;SDS011;4581;42.416;25.598;2023-09-12T09:00:24;0.43;;;0.40;;
9090;SDS011;4581;42.416;25.598;2023-09-12T09:02:53;0.20;;;0.20;;
9090;SDS011;4581;42.416;25.598;2023-09-12T09:05:21;0.35;;;0.35;;
9090;SDS011;4581;42.416;25.598;2023-09-12T09:07:49;0.68;;;0.65;;
9090;SDS011;4581;42.416;25.598;2023-09-12T09:10:17;0.43;;;0.43;;
9090;SDS011;4581;42.416;25.598;2023-09-12T09:12:54;0.30;;;0.22;;
9090;SDS011;4581;42.416;25.598;2023-09-12T09:15:29;0.63;;;0.60;;
9090;SDS011;4581;42.416;25.598;2023-09-12T09:17:57;0.57;;;0.47;;
9090;SDS011;4581;42.416;25.598;2023-09-12T09:20:30;0.30;;;0.30;;
9090;SDS011;4581;42.416;25.598;2023-09-12T09:23:02;0.90;;;0.68;;
9090;SDS011;4581;42.416;25.598;2023-09-12T09:25:32;0.40;;;0.40;;
9090;SDS011;4581;42.416;25.598;2023-09-12T09:28:19;0.55;;;0.55;;
9090;SDS011;4581;42.416;25.598;2023-09-12T09:30:48;0.70;;;0.70;;
9090;SDS011;4581;42.416;25.598;2023-09-12T09:33:17;1.13;;;1.02;;
9090;SDS011;4581;42.416;25.598;2023-09-12T09:35:48;0.40;;;0.40;;
9090;SDS011;4581;42.416;25.598;2023-09-12T09:38:15;0.55;;;0.55;;
9090;SDS011;4581;42.416;25.598;2023-09-12T09:40:46;0.85;;;0.85;;
9090;SDS011;4581;42.416;25.598;2023-09-12T09:43:13;1.00;;;1.00;;
9090;SDS011;4581;42.416;25.598;2023-09-12T09:45:46;0.73;;;0.50;;
9090;SDS011;4581;42.416;25.598;2023-09-12T09:48:18;0.50;;;0.50;;
9090;SDS011;4581;42.416;25.598;2023-09-12T09:50:48;0.90;;;0.70;;
9090;SDS011;4581;42.416;25.598;2023-09-12T09:53:15;1.75;;;1.05;;
9090;SDS011;4581;42.416;25.598;2023-09-12T09:55:42;0.50;;;0.50;;
9090;SDS011;4581;42.416;25.598;2023-09-12T09:58:14;0.43;;;0.43;;
9090;SDS011;4581;42.416;25.598;2023-09-12T10:00:43;1.17;;;0.75;;
9090;SDS011;4581;42.416;25.598;2023-09-12T10:03:10;1.83;;;0.90;;
9090;SDS011;4581;42.416;25.598;2023-09-12T10:05:37;0.73;;;0.73;;
9090;SDS011;4581;42.416;25.598;2023-09-12T10:08:06;0.30;;;0.30;;
9090;SDS011;4581;42.416;25.598;2023-09-12T10:10:37;0.70;;;0.70;;
9090;SDS011;4581;42.416;25.598;2023-09-12T10:13:04;0.55;;;0.55;;
9090;SDS011;4581;42.416;25.598;2023-09-12T10:15:33;1.77;;;0.77;;
9090;SDS011;4581;42.416;25.598;2023-09-12T10:18:04;1.00;;;0.73;;
9090;SDS011;4581;42.416;25.598;2023-09-12T10:20:52;0.40;;;0.40;;
9090;SDS011;4581;42.416;25.598;2023-09-12T10:23:27;0.50;;;0.50;;
9090;SDS011;4581;42.416;25.598;2023-09-12T10:26:03;0.73;;;0.73;;
9090;SDS011;4581;42.416;25.598;2023-09-12T10:28:31;1.20;;;1.10;;
9090;SDS011;4581;42.416;25.598;2023-09-12T10:30:58;0.50;;;0.50;;
9090;SDS011;4581;42.416;25.598;2023-09-12T10:33:27;0.73;;;0.73;;
9090;SDS011;4581;42.416;25.598;2023-09-12T10:35:58;1.08;;;0.98;;
9090;SDS011;4581;42.416;25.598;2023-09-12T10:38:26;0.57;;;0.57;;
9090;SDS011;4581;42.416;25.598;2023-09-12T10:40:54;0.60;;;0.60;;
9090;SDS011;4581;42.416;25.598;2023-09-12T10:43:22;0.57;;;0.57;;
9090;SDS011;4581;42.416;25.598;2023-09-12T10:45:51;0.95;;;0.73;;
9090;SDS011;4581;42.416;25.598;2023-09-12T10:48:18;0.63;;;0.63;;
9090;SDS011;4581;42.416;25.598;2023-09-12T10:50:45;0.50;;;0.50;;
9090;SDS011;4581;42.416;25.598;2023-09-12T10:53:13;1.42;;;1.00;;
9090;SDS011;4581;42.416;25.598;2023-09-12T10:55:42;0.30;;;0.30;;
9090;SDS011;4581;42.416;25.598;2023-09-12T10:58:23;0.52;;;0.52;;
9090;SDS011;4581;42.416;25.598;2023-09-12T11:03:51;0.60;;;0.60;;
9090;SDS011;4581;42.416;25.598;2023-09-12T11:06:19;0.50;;;0.47;;
9090;SDS011;4581;42.416;25.598;2023-09-12T11:09:15;0.95;;;0.82;;
9090;SDS011;4581;42.416;25.598;2023-09-12T11:11:43;0.50;;;0.50;;
9090;SDS011;4581;42.416;25.598;2023-09-12T11:14:12;0.38;;;0.38;;
9090;SDS011;4581;42.416;25.598;2023-09-12T11:16:41;3.15;;;0.60;;
9090;SDS011;4581;42.416;25.598;2023-09-12T11:21:43;1.05;;;0.95;;
9090;SDS011;4581;42.416;25.598;2023-09-12T11:24:13;0.70;;;0.70;;
9090;SDS011;4581;42.416;25.598;2023-09-12T11:29:33;0.68;;;0.68;;
9090;SDS011;4581;42.416;25.598;2023-09-12T11:32:02;0.55;;;0.55;;
9090;SDS011;4581;42.416;25.598;2023-09-12T11:34:30;0.95;;;0.43;;
9090;SDS011;4581;42.416;25.598;2023-09-12T11:37:03;1.63;;;0.82;;
9090;SDS011;4581;42.416;25.598;2023-09-12T11:39:35;0.70;;;0.70;;
9090;SDS011;4581;42.416;25.598;2023-09-12T11:42:03;0.85;;;0.80;;
9090;SDS011;4581;42.416;25.598;2023-09-12T11:44:31;1.80;;;0.90;;
9090;SDS011;4581;42.416;25.598;2023-09-12T11:47:01;1.02;;;1.00;;
9090;SDS011;4581;42.416;25.598;2023-09-12T11:49:39;1.02;;;1.02;;
9090;SDS011;4581;42.416;25.598;2023-09-12T11:52:10;0.40;;;0.40;;
9090;SDS011;4581;42.416;25.598;2023-09-12T11:54:43;0.80;;;0.80;;
9090;SDS011;4581;42.416;25.598;2023-09-12T11:57:14;0.70;;;0.70;;
9090;SDS011;4581;42.416;25.598;2023-09-12T11:59:42;0.68;;;0.68;;
9090;SDS011;4581;42.416;25.598;2023-09-12T12:02:18;0.65;;;0.65;;
9090;SDS011;4581;42.416;25.598;2023-09-12T12:04:47;0.65;;;0.65;;
9090;SDS011;4581;42.416;25.598;2023-09-12T12:07:14;0.68;;;0.55;;
9090;SDS011;4581;42.416;25.598;2023-09-12T12:09:41;0.50;;;0.50;;
9090;SDS011;4581;42.416;25.598;2023-09-12T12:12:11;1.08;;;1.00;;
9090;SDS011;4581;42.416;25.598;2023-09-12T12:14:40;0.77;;;0.77;;
9090;SDS011;4581;42.416;25.598;2023-09-12T12:17:08;0.90;;;0.90;;
9090;SDS011;4581;42.416;25.598;2023-09-12T12:19:36;1.10;;;1.00;;
9090;SDS011;4581;42.416;25.598;2023-09-12T12:22:05;0.85;;;0.85;;
9090;SDS011;4581;42.416;25.598;2023-09-12T12:24:36;0.93;;;0.85;;
9090;SDS011;4581;42.416;25.598;2023-09-12T12:27:04;0.80;;;0.80;;
9090;SDS011;4581;42.416;25.598;2023-09-12T12:29:32;1.27;;;1.17;;
9090;SDS011;4581;42.416;25.598;2023-09-12T12:32:00;1.40;;;1.30;;
9090;SDS011;4581;42.416;25.598;2023-09-12T12:34:28;1.23;;;1.13;;
9090;SDS011;4581;42.416;25.598;2023-09-12T12:37:15;1.63;;;1.40;;
9090;SDS011;4581;42.416;25.598;2023-09-12T12:39:42;1.48;;;1.20;;
9090;SDS011;4581;42.416;25.598;2023-09-12T12:42:10;1.13;;;1.05;;
9090;SDS011;4581;42.416;25.598;2023-09-12T12:44:36;0.52;;;0.52;;
9090;SDS011;4581;42.416;25.598;2023-09-12T12:47:08;0.70;;;0.70;;
9090;SDS011;4581;42.416;25.598;2023-09-12T12:49:36;0.93;;;0.93;;
9090;SDS011;4581;42.416;25.598;2023-09-12T12:52:09;0.93;;;0.93;;
9090;SDS011;4581;42.416;25.598;2023-09-12T12:54:36;0.55;;;0.55;;
9090;SDS011;4581;42.416;25.598;2023-09-12T12:57:03;1.88;;;1.10;;
9090;SDS011;4581;42.416;25.598;2023-09-12T12:59:30;1.05;;;0.80;;
9090;SDS011;4581;42.416;25.598;2023-09-12T13:02:01;0.60;;;0.60;;
9090;SDS011;4581;42.416;25.598;2023-09-12T13:04:35;0.73;;;0.60;;
9090;SDS011;4581;42.416;25.598;2023-09-12T13:07:03;0.80;;;0.80;;
9090;SDS011;4581;42.416;25.598;2023-09-12T13:09:31;2.17;;;0.77;;
9090;SDS011;4581;42.416;25.598;2023-09-12T13:11:59;0.80;;;0.57;;
9090;SDS011;4581;42.416;25.598;2023-09-12T13:14:26;0.70;;;0.70;;
9090;SDS011;4581;42.416;25.598;2023-09-12T13:16:57;0.93;;;0.85;;
9090;SDS011;4581;42.416;25.598;2023-09-12T13:19:28;0.32;;;0.32;;
9090;SDS011;4581;42.416;25.598;2023-09-12T13:21:54;0.60;;;0.60;;
9090;SDS011;4581;42.416;25.598;2023-09-12T13:24:21;0.95;;;0.77;;
9090;SDS011;4581;42.416;25.598;2023-09-12T13:26:49;0.80;;;0.75;;
9090;SDS011;4581;42.416;25.598;2023-09-12T13:29:16;1.48;;;1.13;;
9090;SDS011;4581;42.416;25.598;2023-09-12T13:31:43;0.60;;;0.60;;
9090;SDS011;4581;42.416;25.598;2023-09-12T13:34:10;0.38;;;0.38;;
9090;SDS011;4581;42.416;25.598;2023-09-12T13:36:37;1.23;;;0.88;;
9090;SDS011;4581;42.416;25.598;2023-09-12T13:39:04;0.77;;;0.70;;
9090;SDS011;4581;42.416;25.598;2023-09-12T13:41:32;0.73;;;0.63;;
9090;SDS011;4581;42.416;25.598;2023-09-12T13:43:59;0.70;;;0.70;;
9090;SDS011;4581;42.416;25.598;2023-09-12T13:46:26;0.73;;;0.68;;
9090;SDS011;4581;42.416;25.598;2023-09-12T13:48:52;0.50;;;0.50;;
9090;SDS011;4581;42.416;25.598;2023-09-12T13:51:19;0.80;;;0.47;;
9090;SDS011;4581;42.416;25.598;2023-09-12T13:53:46;0.65;;;0.50;;
9090;SDS011;4581;42.416;25.598;2023-09-12T13:56:13;0.93;;;0.90;;
9090;SDS011;4581;42.416;25.598;2023-09-12T13:58:39;0.70;;;0.70;;
9090;SDS011;4581;42.416;25.598;2023-09-12T14:01:09;1.42;;;1.20;;
9090;SDS011;4581;42.416;25.598;2023-09-12T14:03:38;0.52;;;0.52;;
9090;SDS011;4581;42.416;25.598;2023-09-12T14:06:05;0.43;;;0.43;;
9090;SDS011;4581;42.416;25.598;2023-09-12T14:08:32;0.60;;;0.60;;
9090;SDS011;4581;42.416;25.598;2023-09-12T14:10:59;0.60;;;0.60;;
9090;SDS011;4581;42.416;25.598;2023-09-12T14:13:26;1.10;;;0.60;;
9090;SDS011;4581;42.416;25.598;2023-09-12T14:15:54;1.02;;;0.90;;
9090;SDS011;4581;42.416;25.598;2023-09-12T14:18:22;0.50;;;0.50;;
9090;SDS011;4581;42.416;25.598;2023-09-12T14:20:49;0.75;;;0.55;;
9090;SDS011;4581;42.416;25.598;2023-09-12T14:23:19;0.47;;;0.47;;
9090;SDS011;4581;42.416;25.598;2023-09-12T14:25:48;0.40;;;0.40;;
9090;SDS011;4581;42.416;25.598;2023-09-12T14:28:15;1.17;;;0.93;;
9090;SDS011;4581;42.416;25.598;2023-09-12T14:30:42;0.65;;;0.65;;
9090;SDS011;4581;42.416;25.598;2023-09-12T14:33:10;0.85;;;0.52;;
9090;SDS011;4581;42.416;25.598;2023-09-12T14:35:42;0.52;;;0.38;;
9090;SDS011;4581;42.416;25.598;2023-09-12T14:38:09;1.25;;;0.85;;
9090;SDS011;4581;42.416;25.598;2023-09-12T14:40:36;1.52;;;1.23;;
9090;SDS011;4581;42.416;25.598;2023-09-12T14:43:04;0.70;;;0.65;;
9090;SDS011;4581;42.416;25.598;2023-09-12T14:45:33;2.13;;;1.67;;
9090;SDS011;4581;42.416;25.598;2023-09-12T14:48:00;2.50;;;1.42;;
9090;SDS011;4581;42.416;25.598;2023-09-12T14:50:27;1.58;;;1.08;;
9090;SDS011;4581;42.416;25.598;2023-09-12T14:53:07;2.92;;;1.52;;
9090;SDS011;4581;42.416;25.598;2023-09-12T14:55:34;1.80;;;1.40;;
9090;SDS011;4581;42.416;25.598;2023-09-12T14:58:01;0.70;;;0.70;;
9090;SDS011;4581;42.416;25.598;2023-09-12T15:00:27;2.90;;;1.85;;
9090;SDS011;4581;42.416;25.598;2023-09-12T15:02:54;2.55;;;2.30;;
9090;SDS011;4581;42.416;25.598;2023-09-12T15:05:21;9.45;;;5.18;;
9090;SDS011;4581;42.416;25.598;2023-09-12T15:07:48;3.97;;;2.65;;
9090;SDS011;4581;42.416;25.598;2023-09-12T15:10:16;5.97;;;1.05;;
9090;SDS011;4581;42.416;25.598;2023-09-12T15:12:43;1.33;;;1.23;;
9090;SDS011;4581;42.416;25.598;2023-09-12T15:15:10;1.33;;;1.23;;
9090;SDS011;4581;42.416;25.598;2023-09-12T15:17:37;3.60;;;1.55;;
9090;SDS011;4581;42.416;25.598;2023-09-12T15:20:04;1.08;;;0.80;;